createdAt,value
2023-04-16T00:00:55.598Z,102286.34
2023-04-16T00:03:22.178Z,102296.13
2023-04-16T00:05:48.671Z,102290.25
2023-04-16T00:08:15.104Z,102289.25
2023-04-16T00:10:41.551Z,102290.25
2023-04-16T00:13:07.934Z,102290.91
2023-04-16T00:15:34.277Z,102302.13
2023-04-16T00:18:00.696Z,102289.63
2023-04-16T00:20:27.182Z,102292.50
2023-04-16T00:22:53.514Z,102291.69
2023-04-16T00:25:19.932Z,102294.78
2023-04-16T00:27:46.318Z,102301.19
2023-04-16T00:30:12.981Z,102285.84
2023-04-16T00:32:39.593Z,102291.69
2023-04-16T00:35:06.717Z,102294.19
2023-04-16T00:37:33.123Z,102292.34
2023-04-16T00:39:59.439Z,102293.56
2023-04-16T00:42:25.823Z,102293.56
2023-04-16T00:44:52.176Z,102300.81
2023-04-16T00:47:20.756Z,102301.59
2023-04-16T00:49:47.562Z,102298.72
2023-04-16T00:52:13.998Z,102294.78
2023-04-16T00:54:40.832Z,102299.13
2023-04-16T00:57:07.532Z,102297.47
2023-04-16T00:59:33.882Z,102289.38
2023-04-16T01:02:00.496Z,102294.97
2023-04-16T01:04:27.094Z,102294.97
2023-04-16T01:06:53.740Z,102295.81
2023-04-16T01:09:20.232Z,102299.53
2023-04-16T01:11:46.578Z,102300.19
2023-04-16T01:14:12.939Z,102302.03
2023-04-16T01:16:39.309Z,102303.91
2023-04-16T01:19:05.663Z,102300.81
2023-04-16T01:21:32.359Z,102297.66
2023-04-16T01:24:03.117Z,102289.94
2023-04-16T01:26:29.486Z,102294.50
2023-04-16T01:28:56.190Z,102298.44
2023-04-16T01:31:22.545Z,102298.25
2023-04-16T01:33:48.872Z,102300.75
2023-04-16T01:36:15.358Z,102300.94
2023-04-16T01:38:41.935Z,102298.63
2023-04-16T01:41:08.373Z,102302.19
2023-04-16T01:43:34.778Z,102300.31
2023-04-16T01:46:15.159Z,102304.28
2023-04-16T01:48:41.831Z,102298.72
2023-04-16T01:51:08.297Z,102302.44
2023-04-16T01:53:36.956Z,102303.25
2023-04-16T01:56:03.947Z,102305.50
2023-04-16T01:58:31.250Z,102308.66
2023-04-16T02:00:58.439Z,102307.81
2023-04-16T02:03:25.092Z,102305.97
2023-04-16T02:05:51.820Z,102303.25
2023-04-16T02:08:18.251Z,102307.63
2023-04-16T02:10:49.048Z,102304.75
2023-04-16T02:13:16.593Z,102307.22
2023-04-16T02:15:50.718Z,102304.53
2023-04-16T02:18:17.134Z,102307.06
2023-04-16T02:20:44.953Z,102297.91
2023-04-16T02:23:11.844Z,102295.88
2023-04-16T02:25:42.373Z,102305.38
2023-04-16T02:28:09.658Z,102299.13
2023-04-16T02:30:37.165Z,102291.31
2023-04-16T02:33:05.570Z,102296.28
2023-04-16T02:35:35.188Z,102304.41
2023-04-16T02:38:02.408Z,102299.66
2023-04-16T02:40:28.877Z,102301.31
2023-04-16T02:42:55.653Z,102299.28
2023-04-16T02:45:22.947Z,102300.09
2023-04-16T02:47:50.195Z,102310.06
2023-04-16T02:50:17.077Z,102301.97
2023-04-16T02:52:43.460Z,102301.97
2023-04-16T02:55:10.776Z,102309.84
2023-04-16T02:57:37.240Z,102303.44
2023-04-16T03:00:06.703Z,102309.69
2023-04-16T03:02:33.155Z,102304.28
2023-04-16T03:04:59.572Z,102308.00
2023-04-16T03:07:26.104Z,102311.72
2023-04-16T03:09:52.488Z,102306.97
2023-04-16T03:12:18.816Z,102316.56
2023-04-16T03:14:45.281Z,102317.56
2023-04-16T03:17:12.064Z,102317.78
2023-04-16T03:19:38.462Z,102317.78
2023-04-16T03:22:04.829Z,102318.81
2023-04-16T03:24:31.260Z,102316.72
2023-04-16T03:26:58.554Z,102328.38
2023-04-16T03:29:26.651Z,102319.44
2023-04-16T03:31:52.965Z,102322.34
2023-04-16T03:34:19.345Z,102333.13
2023-04-16T03:36:45.877Z,102322.53
2023-04-16T03:39:12.381Z,102329.34
2023-04-16T03:41:38.708Z,102331.84
2023-04-16T03:44:05.153Z,102333.69
2023-04-16T03:46:31.517Z,102327.50
2023-04-16T03:48:57.866Z,102327.03
2023-04-16T03:51:24.775Z,102339.47
2023-04-16T03:53:51.083Z,102337.84
2023-04-16T03:56:18.156Z,102334.75
2023-04-16T03:58:44.463Z,102341.56
2023-04-16T04:01:10.880Z,102329.72
2023-04-16T04:03:37.483Z,102334.09
2023-04-16T04:06:10.315Z,102330.38
2023-04-16T04:08:36.690Z,102336.78
2023-04-16T04:11:03.052Z,102339.47
2023-04-16T04:13:29.347Z,102333.91
2023-04-16T04:15:55.836Z,102338.69
2023-04-16T04:18:22.362Z,102340.31
2023-04-16T04:20:48.882Z,102339.47
2023-04-16T04:23:15.562Z,102339.47
2023-04-16T04:25:41.982Z,102342.00
2023-04-16T04:28:08.329Z,102343.22
2023-04-16T04:30:35.743Z,102350.50
2023-04-16T04:33:02.283Z,102354.88
2023-04-16T04:35:28.721Z,102354.88
2023-04-16T04:37:55.655Z,102348.81
2023-04-16T04:40:22.243Z,102358.13
2023-04-16T04:42:48.838Z,102359.81
2023-04-16T04:45:15.536Z,102358.97
2023-04-16T04:47:42.166Z,102364.56
2023-04-16T04:50:09.040Z,102367.06
2023-04-16T04:52:35.813Z,102363.53
2023-04-16T04:55:02.165Z,102363.75
2023-04-16T04:57:28.527Z,102368.28
2023-04-16T04:59:54.914Z,102370.59
2023-04-16T05:02:21.318Z,102365.22
2023-04-16T05:04:47.683Z,102367.91
2023-04-16T05:07:14.048Z,102360.00
2023-04-16T05:09:40.429Z,102368.94
2023-04-16T05:12:06.764Z,102364.56
2023-04-16T05:14:33.276Z,102370.78
2023-04-16T05:16:59.744Z,102366.91
2023-04-16T05:19:26.175Z,102362.69
2023-04-16T05:21:52.502Z,102376.84
2023-04-16T05:24:19.757Z,102369.78
2023-04-16T05:26:46.100Z,102370.59
2023-04-16T05:29:12.521Z,102375.00
2023-04-16T05:31:38.913Z,102373.94
2023-04-16T05:34:05.283Z,102371.25
2023-04-16T05:36:31.641Z,102379.34
2023-04-16T05:38:57.950Z,102379.34
2023-04-16T05:41:24.457Z,102376.47
2023-04-16T05:43:50.817Z,102381.88
2023-04-16T05:46:17.206Z,102382.69
2023-04-16T05:48:43.581Z,102378.97
2023-04-16T05:51:09.897Z,102383.13
2023-04-16T05:53:36.252Z,102395.78
2023-04-16T05:56:02.622Z,102391.06
2023-04-16T05:58:29.133Z,102399.78
2023-04-16T06:00:55.641Z,102389.84
2023-04-16T06:03:22.120Z,102395.03
2023-04-16T06:05:48.612Z,102396.72
2023-04-16T06:08:15.002Z,102402.94
2023-04-16T06:10:41.373Z,102403.59
2023-04-16T06:13:07.729Z,102401.72
2023-04-16T06:15:34.101Z,102407.75
2023-04-16T06:18:01.107Z,102403.38
2023-04-16T06:20:27.687Z,102407.13
2023-04-16T06:22:54.106Z,102408.16
2023-04-16T06:25:20.525Z,102413.53
2023-04-16T06:27:47.008Z,102412.31
2023-04-16T06:30:14.793Z,102418.19
2023-04-16T06:32:41.872Z,102423.19
2023-04-16T06:35:08.856Z,102428.78
2023-04-16T06:37:35.501Z,102421.91
2023-04-16T06:40:02.074Z,102426.06
2023-04-16T06:42:28.497Z,102426.91
2023-04-16T06:44:54.849Z,102429.22
2023-04-16T06:47:21.343Z,102439.47
2023-04-16T06:49:47.664Z,102437.59
2023-04-16T06:52:14.012Z,102433.66
2023-04-16T06:54:40.513Z,102441.59
2023-04-16T06:57:06.917Z,102440.75
2023-04-16T06:59:33.248Z,102439.91
2023-04-16T07:01:59.755Z,102445.75
2023-04-16T07:04:26.366Z,102442.47
2023-04-16T07:06:52.785Z,102439.78
2023-04-16T07:09:19.118Z,102454.56
2023-04-16T07:11:45.634Z,102453.72
2023-04-16T07:14:12.082Z,102458.75
2023-04-16T07:16:38.461Z,102462.75
2023-04-16T07:19:04.826Z,102464.63
2023-04-16T07:21:31.821Z,102470.41
2023-04-16T07:23:58.131Z,102462.94
2023-04-16T07:26:24.496Z,102463.38
2023-04-16T07:28:50.860Z,102466.94
2023-04-16T07:31:17.396Z,102469.63
2023-04-16T07:33:43.916Z,102473.81
2023-04-16T07:36:11.003Z,102476.06
2023-04-16T07:38:37.330Z,102470.84
2023-04-16T07:41:03.735Z,102476.25
2023-04-16T07:43:30.410Z,102481.28
2023-04-16T07:45:56.890Z,102477.34
2023-04-16T07:48:23.423Z,102486.09
2023-04-16T07:50:50.315Z,102481.31
2023-04-16T07:53:16.764Z,102490.09
2023-04-16T07:55:43.146Z,102493.81
2023-04-16T07:58:09.607Z,102498.59
2023-04-16T08:00:36.027Z,102500.06
2023-04-16T08:03:02.544Z,102503.59
2023-04-16T08:05:29.221Z,102504.03
2023-04-16T08:07:55.612Z,102506.72
2023-04-16T08:10:21.962Z,102504.28
2023-04-16T08:12:51.490Z,102514.47
2023-04-16T08:15:17.917Z,102511.38
2023-04-16T08:17:44.704Z,102524.72
2023-04-16T08:20:14.423Z,102519.72
2023-04-16T08:22:42.281Z,102523.66
2023-04-16T08:25:09.149Z,102518.06
2023-04-16T08:27:35.689Z,102520.56
2023-04-16T08:30:02.116Z,102526.03
2023-04-16T08:32:28.603Z,102536.00
2023-04-16T08:34:55.392Z,102526.50
2023-04-16T08:37:21.757Z,102526.50
2023-04-16T08:39:48.076Z,102529.44
2023-04-16T08:42:23.984Z,102534.91
2023-04-16T08:44:58.178Z,102539.28
2023-04-16T08:47:25.477Z,102539.34
2023-04-16T08:49:57.422Z,102542.94
2023-04-16T08:52:28.242Z,102547.56
2023-04-16T08:55:14.588Z,102549.63
2023-04-16T08:58:00.010Z,102546.53
2023-04-16T09:00:26.682Z,102543.44
2023-04-16T09:02:53.987Z,102547.66
2023-04-16T09:05:22.642Z,102545.63
2023-04-16T09:07:48.994Z,102546.13
2023-04-16T09:10:16.438Z,102546.16
2023-04-16T09:12:43.325Z,102548.22
2023-04-16T09:15:10.974Z,102547.38
2023-04-16T09:17:37.831Z,102552.63
2023-04-16T09:20:09.149Z,102556.16
2023-04-16T09:22:36.283Z,102552.00
2023-04-16T09:25:03.278Z,102547.91
2023-04-16T09:27:30.698Z,102554.19
2023-04-16T09:29:57.143Z,102556.28
2023-04-16T09:32:28.129Z,102559.81
2023-04-16T09:34:54.453Z,102566.66
2023-04-16T09:37:21.002Z,102556.66
2023-04-16T09:39:55.063Z,102567.09
2023-04-16T09:42:23.614Z,102568.34
2023-04-16T09:44:50.624Z,102574.63
2023-04-16T09:47:17.041Z,102576.91
2023-04-16T09:49:44.140Z,102574.59
2023-04-16T09:52:18.485Z,102580.88
2023-04-16T09:54:52.945Z,102582.19
2023-04-16T09:57:23.050Z,102588.88
2023-04-16T09:59:54.262Z,102588.44
2023-04-16T10:02:20.954Z,102589.28
2023-04-16T10:04:52.073Z,102589.44
2023-04-16T10:07:19.401Z,102591.69
2023-04-16T10:09:48.517Z,102592.53
2023-04-16T10:12:15.918Z,102598.41
2023-04-16T10:14:42.480Z,102590.13
2023-04-16T10:17:09.813Z,102590.78
2023-04-16T10:19:36.517Z,102593.28
2023-04-16T10:22:03.662Z,102592.22
2023-04-16T10:24:31.236Z,102590.97
2023-04-16T10:26:57.903Z,102596.38
2023-04-16T10:29:26.662Z,102593.84
2023-04-16T10:31:54.038Z,102592.22
2023-04-16T10:34:21.291Z,102598.50
2023-04-16T10:36:54.682Z,102593.91
2023-04-16T10:39:22.844Z,102596.84
2023-04-16T10:41:50.602Z,102601.22
2023-04-16T10:44:19.168Z,102603.94
2023-04-16T10:46:51.473Z,102603.09
2023-04-16T10:49:25.453Z,102596.38
2023-04-16T10:51:58.731Z,102606.44
2023-04-16T10:54:26.497Z,102604.63
2023-04-16T10:56:55.994Z,102601.50
2023-04-16T10:59:23.531Z,102596.50
2023-04-16T11:01:55.656Z,102604.25
2023-04-16T11:04:22.451Z,102601.59
2023-04-16T11:07:13.893Z,102614.03
2023-04-16T11:09:59.246Z,102613.44
2023-04-16T11:12:40.380Z,102610.78
2023-04-16T11:15:11.428Z,102607.44
2023-04-16T11:17:50.306Z,102596.63
2023-04-16T11:20:19.443Z,102596.63
2023-04-16T11:22:47.596Z,102615.38
2023-04-16T11:25:19.680Z,102611.19
2023-04-16T11:27:46.010Z,102615.38
2023-04-16T11:30:13.542Z,102613.63
2023-04-16T11:32:40.565Z,102613.59
2023-04-16T11:35:18.255Z,102616.50
2023-04-16T11:37:45.905Z,102617.75
2023-04-16T11:40:12.708Z,102619.44
2023-04-16T11:42:41.041Z,102621.09
2023-04-16T11:45:12.147Z,102618.38
2023-04-16T11:47:52.945Z,102614.47
2023-04-16T11:50:22.230Z,102620.38
2023-04-16T11:52:49.982Z,102621.19
2023-04-16T11:55:16.723Z,102623.72
2023-04-16T11:57:43.129Z,102620.81
2023-04-16T12:00:12.874Z,102622.31
2023-04-16T12:02:52.167Z,102624.41
2023-04-16T12:05:30.958Z,102621.88
2023-04-16T12:07:58.915Z,102620.41
2023-04-16T12:10:26.013Z,102621.25
2023-04-16T12:12:52.497Z,102627.16
2023-04-16T12:15:19.049Z,102615.44
2023-04-16T12:17:46.039Z,102629.22
2023-04-16T12:20:15.289Z,102630.22
2023-04-16T12:22:46.956Z,102635.84
2023-04-16T12:25:15.950Z,102644.44
2023-04-16T12:27:42.238Z,102632.53
2023-04-16T12:30:09.204Z,102632.09
2023-04-16T12:32:35.991Z,102639.16
2023-04-16T12:35:02.469Z,102634.31
2023-04-16T12:37:28.887Z,102642.47
2023-04-16T12:39:55.307Z,102643.72
2023-04-16T12:42:21.797Z,102648.72
2023-04-16T12:44:48.118Z,102646.88
2023-04-16T12:47:14.605Z,102644.38
2023-04-16T12:49:40.955Z,102643.78
2023-04-16T12:52:07.349Z,102640.06
2023-04-16T12:54:33.920Z,102642.53
2023-04-16T12:57:00.294Z,102638.00
2023-04-16T12:59:26.622Z,102645.56
2023-04-16T13:01:53.092Z,102640.19
2023-04-16T13:04:19.649Z,102648.13
2023-04-16T13:06:46.254Z,102639.34
2023-04-16T13:09:12.810Z,102638.09
2023-04-16T13:11:39.248Z,102638.06
2023-04-16T13:14:06.260Z,102636.19
2023-04-16T13:16:32.601Z,102639.28
2023-04-16T13:18:58.966Z,102631.75
2023-04-16T13:21:25.286Z,102627.59
2023-04-16T13:23:51.628Z,102630.31
2023-04-16T13:26:18.036Z,102631.19
2023-04-16T13:28:44.446Z,102635.16
2023-04-16T13:31:10.981Z,102633.69
2023-04-16T13:33:38.115Z,102626.03
2023-04-16T13:36:04.811Z,102636.63
2023-04-16T13:38:31.164Z,102634.94
2023-04-16T13:40:57.521Z,102634.94
2023-04-16T13:43:24.063Z,102635.16
2023-04-16T13:45:50.618Z,102635.16
2023-04-16T13:48:18.014Z,102636.41
2023-04-16T13:50:44.435Z,102639.72
2023-04-16T13:53:10.793Z,102630.75
2023-04-16T13:55:37.223Z,102632.22
2023-04-16T13:58:03.652Z,102630.59
2023-04-16T14:00:30.052Z,102628.97
2023-04-16T14:02:56.761Z,102630.22
2023-04-16T14:05:25.185Z,102630.44
2023-04-16T14:07:53.107Z,102626.88
2023-04-16T14:10:19.712Z,102627.69
2023-04-16T14:12:46.200Z,102633.53
2023-04-16T14:15:14.633Z,102622.28
2023-04-16T14:17:43.885Z,102627.47
2023-04-16T14:20:12.376Z,102628.53
2023-04-16T14:22:39.314Z,102622.00
2023-04-16T14:25:07.026Z,102629.69
2023-04-16T14:27:34.225Z,102622.50
2023-04-16T14:30:00.992Z,102622.28
2023-04-16T14:32:27.604Z,102624.81
2023-04-16T14:34:54.046Z,102626.88
2023-04-16T14:37:20.556Z,102628.00
2023-04-16T14:39:46.906Z,102633.28
2023-04-16T14:42:13.311Z,102636.88
2023-04-16T14:44:39.698Z,102637.09
2023-04-16T14:47:06.493Z,102633.53
2023-04-16T14:49:33.329Z,102629.59
2023-04-16T14:52:02.198Z,102626.03
2023-04-16T14:54:28.581Z,102619.56
2023-04-16T14:56:54.961Z,102622.66
2023-04-16T14:59:21.321Z,102627.69
2023-04-16T15:01:47.979Z,102619.34
2023-04-16T15:04:14.536Z,102627.25
2023-04-16T15:06:42.013Z,102623.88
2023-04-16T15:09:09.433Z,102614.34
2023-04-16T15:11:36.005Z,102617.47
2023-04-16T15:14:02.475Z,102623.69
2023-04-16T15:16:28.906Z,102618.16
2023-04-16T15:18:55.365Z,102618.50
2023-04-16T15:21:21.879Z,102621.22
2023-04-16T15:23:48.258Z,102610.84
2023-04-16T15:26:14.616Z,102620.94
2023-04-16T15:28:41.296Z,102622.00
2023-04-16T15:31:07.744Z,102626.22
2023-04-16T15:33:34.064Z,102621.22
2023-04-16T15:36:00.434Z,102622.94
2023-04-16T15:38:28.531Z,102622.13
2023-04-16T15:40:54.963Z,102623.81
2023-04-16T15:43:21.392Z,102626.59
2023-04-16T15:45:47.753Z,102618.50
2023-04-16T15:48:14.310Z,102625.00
2023-04-16T15:50:40.738Z,102625.81
2023-04-16T15:53:07.137Z,102619.50
2023-04-16T15:55:34.422Z,102623.06
2023-04-16T15:58:00.824Z,102629.97
2023-04-16T16:00:27.674Z,102625.16
2023-04-16T16:02:54.141Z,102622.25
2023-04-16T16:05:20.717Z,102620.94
2023-04-16T16:07:47.194Z,102626.78
2023-04-16T16:10:13.628Z,102623.03
2023-04-16T16:12:40.878Z,102630.97
2023-04-16T16:15:07.697Z,102627.81
2023-04-16T16:17:34.097Z,102623.88
2023-04-16T16:20:01.015Z,102630.13
2023-04-16T16:22:27.500Z,102626.78
2023-04-16T16:24:55.588Z,102626.75
2023-04-16T16:27:22.577Z,102631.72
2023-04-16T16:29:49.119Z,102627.78
2023-04-16T16:32:16.562Z,102625.47
2023-04-16T16:34:43.150Z,102623.38
2023-04-16T16:37:09.555Z,102627.97
2023-04-16T16:39:38.336Z,102624.41
2023-04-16T16:42:05.099Z,102630.22
2023-04-16T16:44:31.579Z,102629.97
2023-04-16T16:46:57.988Z,102633.75
2023-04-16T16:49:24.433Z,102635.63
2023-04-16T16:51:50.846Z,102627.88
2023-04-16T16:54:17.178Z,102631.63
2023-04-16T16:56:43.491Z,102639.47
2023-04-16T16:59:10.533Z,102644.84
2023-04-16T17:01:37.266Z,102644.00
2023-04-16T17:04:04.139Z,102653.53
2023-04-16T17:06:31.909Z,102650.38
2023-04-16T17:08:58.281Z,102651.00
2023-04-16T17:11:26.946Z,102648.22
2023-04-16T17:13:53.648Z,102654.19
2023-04-16T17:16:20.028Z,102649.53
2023-04-16T17:18:46.548Z,102650.56
2023-04-16T17:21:15.108Z,102653.50
2023-04-16T17:23:42.742Z,102659.25
2023-04-16T17:26:09.072Z,102664.44
2023-04-16T17:28:35.390Z,102661.06
2023-04-16T17:31:02.748Z,102659.78
2023-04-16T17:33:29.139Z,102666.53
2023-04-16T17:35:55.509Z,102670.44
2023-04-16T17:38:21.863Z,102673.72
2023-04-16T17:40:48.181Z,102677.06
2023-04-16T17:43:14.562Z,102684.34
2023-04-16T17:45:40.972Z,102678.31
2023-04-16T17:48:07.421Z,102683.31
2023-04-16T17:50:34.034Z,102681.00
2023-04-16T17:53:03.628Z,102686.13
2023-04-16T17:55:30.955Z,102689.06
2023-04-16T17:57:57.269Z,102692.00
2023-04-16T18:00:23.816Z,102691.53
2023-04-16T18:02:52.323Z,102687.81
2023-04-16T18:05:21.611Z,102701.94
2023-04-16T18:07:48.262Z,102694.75
2023-04-16T18:10:14.611Z,102695.16
2023-04-16T18:12:41.088Z,102691.81
2023-04-16T18:15:08.010Z,102708.03
2023-04-16T18:17:34.385Z,102696.19
2023-04-16T18:20:00.894Z,102698.63
2023-04-16T18:22:28.469Z,102701.72
2023-04-16T18:24:55.089Z,102700.41
2023-04-16T18:27:21.608Z,102700.78
2023-04-16T18:29:49.404Z,102702.47
2023-04-16T18:32:16.112Z,102714.53
2023-04-16T18:34:42.535Z,102721.16
2023-04-16T18:37:08.928Z,102715.91
2023-04-16T18:39:36.631Z,102721.91
2023-04-16T18:42:03.710Z,102724.72
2023-04-16T18:44:30.040Z,102726.75
2023-04-16T18:46:56.454Z,102725.09
2023-04-16T18:49:22.998Z,102737.28
2023-04-16T18:51:49.357Z,102730.19
2023-04-16T18:54:15.746Z,102730.03
2023-04-16T18:56:42.091Z,102731.63
2023-04-16T18:59:08.640Z,102733.31
2023-04-16T19:01:35.138Z,102736.19
2023-04-16T19:04:01.574Z,102735.53
2023-04-16T19:06:29.080Z,102737.19
2023-04-16T19:08:55.628Z,102738.25
2023-04-16T19:11:22.023Z,102741.22
2023-04-16T19:13:48.497Z,102743.72
2023-04-16T19:16:14.963Z,102743.44
2023-04-16T19:18:41.429Z,102739.06
2023-04-16T19:21:09.875Z,102753.59
2023-04-16T19:23:36.447Z,102752.28
2023-04-16T19:26:02.774Z,102752.66
2023-04-16T19:28:29.132Z,102743.53
2023-04-16T19:30:55.849Z,102738.97
2023-04-16T19:33:22.254Z,102749.41
2023-04-16T19:35:48.823Z,102746.88
2023-04-16T19:38:15.589Z,102742.44
2023-04-16T19:40:46.454Z,102738.03
2023-04-16T19:43:13.045Z,102749.31
2023-04-16T19:45:47.412Z,102745.59
2023-04-16T19:48:14.374Z,102742.63
2023-04-16T19:50:42.059Z,102748.03
2023-04-16T19:53:08.824Z,102749.16
2023-04-16T19:55:35.388Z,102748.31
2023-04-16T19:58:06.028Z,102749.31
2023-04-16T20:00:33.456Z,102751.84
2023-04-16T20:03:00.118Z,102752.00
2023-04-16T20:05:27.386Z,102754.66
2023-04-16T20:07:54.362Z,102760.06
2023-04-16T20:10:21.024Z,102754.66
2023-04-16T20:12:47.748Z,102753.53
2023-04-16T20:15:14.121Z,102754.53
2023-04-16T20:17:40.759Z,102756.59
2023-04-16T20:20:10.131Z,102760.47
2023-04-16T20:22:37.649Z,102761.88
2023-04-16T20:25:05.463Z,102756.50
2023-04-16T20:27:32.848Z,102758.53
2023-04-16T20:30:00.409Z,102753.97
2023-04-16T20:32:27.927Z,102760.31
2023-04-16T20:34:55.574Z,102759.94
2023-04-16T20:37:22.036Z,102750.34
2023-04-16T20:39:50.114Z,102762.00
2023-04-16T20:42:16.715Z,102759.56
2023-04-16T20:44:50.256Z,102748.41
2023-04-16T20:47:17.263Z,102752.47
2023-04-16T20:49:47.076Z,102753.69
2023-04-16T20:52:13.877Z,102746.97
2023-04-16T20:54:40.338Z,102754.25
2023-04-16T20:57:06.760Z,102744.47
2023-04-16T20:59:33.169Z,102743.81
2023-04-16T21:01:59.888Z,102741.66
2023-04-16T21:04:26.546Z,102738.50
2023-04-16T21:06:55.608Z,102737.19
2023-04-16T21:09:22.709Z,102735.34
2023-04-16T21:11:49.053Z,102741.59
2023-04-16T21:14:15.445Z,102742.59
2023-04-16T21:16:41.759Z,102740.91
2023-04-16T21:19:08.797Z,102740.25
2023-04-16T21:21:35.442Z,102742.31
2023-04-16T21:24:01.892Z,102737.56
2023-04-16T21:26:28.342Z,102739.63
2023-04-16T21:28:55.296Z,102734.94
2023-04-16T21:31:21.970Z,102725.06
2023-04-16T21:33:48.383Z,102732.91
2023-04-16T21:36:15.404Z,102743.69
2023-04-16T21:38:41.761Z,102739.63
2023-04-16T21:41:08.080Z,102746.03
2023-04-16T21:43:34.429Z,102743.31
2023-04-16T21:46:00.883Z,102737.44
2023-04-16T21:48:28.391Z,102739.50
2023-04-16T21:50:59.654Z,102739.88
2023-04-16T21:53:31.772Z,102741.72
2023-04-16T21:55:58.255Z,102748.53
2023-04-16T21:58:25.775Z,102746.38
2023-04-16T22:00:52.372Z,102750.75
2023-04-16T22:03:19.045Z,102747.56
2023-04-16T22:05:45.863Z,102749.09
2023-04-16T22:08:24.188Z,102745.19
2023-04-16T22:10:51.486Z,102752.59
2023-04-16T22:13:18.139Z,102744.50
2023-04-16T22:15:44.559Z,102743.50
2023-04-16T22:18:11.416Z,102743.50
2023-04-16T22:20:38.901Z,102738.09
2023-04-16T22:23:06.331Z,102736.03
2023-04-16T22:25:32.925Z,102739.78
2023-04-16T22:28:01.212Z,102742.16
2023-04-16T22:30:27.544Z,102733.41
2023-04-16T22:32:53.998Z,102730.44
2023-04-16T22:35:20.484Z,102739.06
2023-04-16T22:37:46.840Z,102729.63
2023-04-16T22:40:13.229Z,102738.09
2023-04-16T22:42:39.593Z,102737.44
2023-04-16T22:45:07.136Z,102739.78
2023-04-16T22:47:33.509Z,102734.38
2023-04-16T22:50:00.428Z,102735.88
2023-04-16T22:52:27.451Z,102738.22
2023-04-16T22:54:53.867Z,102741.56
2023-04-16T22:57:25.380Z,102738.88
2023-04-16T22:59:52.377Z,102730.44
2023-04-16T23:02:19.549Z,102740.22
2023-04-16T23:04:47.795Z,102736.69
2023-04-16T23:07:14.829Z,102733.78
2023-04-16T23:09:41.267Z,102744.09
2023-04-16T23:12:07.950Z,102747.16
2023-04-16T23:14:34.992Z,102747.88
2023-04-16T23:17:01.374Z,102738.28
2023-04-16T23:19:27.748Z,102741.00
2023-04-16T23:21:54.128Z,102739.94
2023-04-16T23:24:20.495Z,102742.28
2023-04-16T23:26:47.906Z,102746.84
2023-04-16T23:29:14.274Z,102745.63
2023-04-16T23:31:40.758Z,102751.03
2023-04-16T23:34:07.176Z,102753.09
2023-04-16T23:36:33.477Z,102749.72
2023-04-16T23:38:59.780Z,102754.66
2023-04-16T23:41:26.202Z,102748.88
2023-04-16T23:43:52.517Z,102756.13
2023-04-16T23:46:18.867Z,102760.88
2023-04-16T23:48:45.331Z,102751.78
2023-04-16T23:51:11.800Z,102752.59
2023-04-16T23:53:38.251Z,102757.63
2023-04-16T23:56:04.811Z,102754.94
2023-04-16T23:58:31.340Z,102747.31
